createdAt,value
2022-11-26T00:01:22.049Z,3.92
2022-11-26T00:02:54.560Z,3.94
2022-11-26T00:04:27.582Z,3.88
2022-11-26T00:05:59.225Z,3.82
2022-11-26T00:07:30.963Z,3.80
2022-11-26T00:09:03.462Z,3.55
2022-11-26T00:10:35.626Z,3.49
2022-11-26T00:12:15.668Z,3.47
2022-11-26T00:13:47.271Z,3.39
2022-11-26T00:15:20.530Z,3.32
2022-11-26T00:16:52.193Z,3.51
2022-11-26T00:18:26.447Z,3.40
2022-11-26T00:19:59.445Z,3.38
2022-11-26T00:21:31.006Z,3.22
2022-11-26T00:23:03.272Z,3.26
2022-11-26T00:24:35.006Z,3.15
2022-11-26T00:26:06.766Z,3.25
2022-11-26T00:27:38.352Z,2.94
2022-11-26T00:29:09.989Z,2.86
2022-11-26T00:30:41.656Z,2.94
2022-11-26T00:32:15.178Z,3.12
2022-11-26T00:33:46.879Z,3.12
2022-11-26T00:35:19.958Z,3.31
2022-11-26T00:36:51.587Z,3.20
2022-11-26T00:38:23.216Z,3.26
2022-11-26T00:39:54.915Z,3.34
2022-11-26T00:41:29.186Z,3.34
2022-11-26T00:43:02.037Z,3.40
2022-11-26T00:44:33.838Z,3.42
2022-11-26T00:46:05.762Z,3.38
2022-11-26T00:47:37.467Z,3.48
2022-11-26T00:49:09.080Z,3.46
2022-11-26T00:50:42.879Z,3.44
2022-11-26T00:52:23.635Z,3.40
2022-11-26T00:53:56.490Z,3.53
2022-11-26T00:55:29.480Z,3.58
2022-11-26T00:57:01.087Z,3.34
2022-11-26T00:58:32.683Z,3.37
2022-11-26T01:00:14.576Z,3.36
2022-11-26T01:01:46.404Z,3.22
2022-11-26T01:03:18.107Z,3.28
2022-11-26T01:04:49.736Z,3.31
2022-11-26T01:06:24.085Z,3.31
2022-11-26T01:07:55.733Z,3.23
2022-11-26T01:09:27.378Z,3.23
2022-11-26T01:10:59.098Z,3.17
2022-11-26T01:12:30.789Z,3.25
2022-11-26T01:14:02.447Z,3.33
2022-11-26T01:15:34.065Z,3.32
2022-11-26T01:17:05.668Z,3.35
2022-11-26T01:18:37.287Z,3.36
2022-11-26T01:20:22.732Z,3.33
2022-11-26T01:21:58.093Z,3.32
2022-11-26T01:23:29.710Z,3.13
2022-11-26T01:25:01.375Z,3.13
2022-11-26T01:26:34.216Z,3.15
2022-11-26T01:28:06.036Z,3.20
2022-11-26T01:29:37.675Z,3.06
2022-11-26T01:31:13.849Z,2.93
2022-11-26T01:32:45.559Z,2.80
2022-11-26T01:34:17.153Z,2.74
2022-11-26T01:35:48.738Z,2.83
2022-11-26T01:37:21.665Z,2.79
2022-11-26T01:38:53.321Z,2.89
2022-11-26T01:41:09.752Z,2.84
2022-11-26T01:42:42.469Z,2.87
2022-11-26T01:44:17.190Z,2.90
2022-11-26T01:45:48.832Z,2.68
2022-11-26T01:47:22.102Z,2.78
2022-11-26T01:48:53.790Z,2.73
2022-11-26T01:50:59.497Z,2.63
2022-11-26T01:52:32.433Z,2.80
2022-11-26T01:54:04.149Z,2.83
2022-11-26T01:55:37.163Z,2.76
2022-11-26T01:57:09.906Z,2.78
2022-11-26T01:58:43.461Z,2.74
2022-11-26T02:00:16.105Z,2.55
2022-11-26T02:01:48.067Z,2.62
2022-11-26T02:03:19.772Z,2.75
2022-11-26T02:04:54.736Z,2.72
2022-11-26T02:06:28.120Z,2.59
2022-11-26T02:08:01.117Z,2.68
2022-11-26T02:09:32.902Z,2.65
2022-11-26T02:11:14.652Z,2.59
2022-11-26T02:12:46.528Z,2.44
2022-11-26T02:14:19.078Z,2.54
2022-11-26T02:15:54.796Z,2.69
2022-11-26T02:17:27.490Z,2.62
2022-11-26T02:19:06.292Z,2.73
2022-11-26T02:20:50.926Z,2.62
2022-11-26T02:22:46.318Z,2.74
2022-11-26T02:24:37.476Z,2.85
2022-11-26T02:26:32.034Z,2.79
2022-11-26T02:28:18.072Z,3.03
2022-11-26T02:30:10.233Z,3.05
2022-11-26T02:31:44.172Z,3.03
2022-11-26T02:33:17.088Z,3.02
2022-11-26T02:34:50.999Z,2.98
2022-11-26T02:36:24.882Z,2.97
2022-11-26T02:37:58.587Z,2.93
2022-11-26T02:39:30.462Z,2.89
2022-11-26T02:41:02.301Z,2.97
2022-11-26T02:42:34.457Z,3.05
2022-11-26T02:44:06.055Z,3.00
2022-11-26T02:45:39.368Z,3.06
2022-11-26T02:47:11.703Z,3.03
2022-11-26T02:48:44.880Z,3.06
2022-11-26T02:50:17.952Z,3.08
2022-11-26T02:51:51.306Z,3.10
2022-11-26T02:53:23.567Z,3.03
2022-11-26T02:54:55.181Z,3.02
2022-11-26T02:56:27.053Z,2.92
2022-11-26T02:57:59.459Z,2.88
2022-11-26T02:59:31.063Z,2.78
2022-11-26T03:01:06.350Z,2.87
2022-11-26T03:02:40.634Z,3.03
2022-11-26T03:04:15.238Z,3.12
2022-11-26T03:05:46.844Z,3.17
2022-11-26T03:07:18.562Z,3.18
2022-11-26T03:08:50.236Z,3.23
2022-11-26T03:10:25.312Z,3.23
2022-11-26T03:11:57.001Z,3.18
2022-11-26T03:13:28.608Z,3.26
2022-11-26T03:15:00.218Z,3.33
2022-11-26T03:16:33.191Z,3.37
2022-11-26T03:18:04.888Z,3.35
2022-11-26T03:19:36.536Z,3.36
2022-11-26T03:21:08.142Z,3.33
2022-11-26T03:22:39.724Z,3.34
2022-11-26T03:24:11.312Z,3.40
2022-11-26T03:25:42.925Z,3.41
2022-11-26T03:27:14.530Z,3.44
2022-11-26T03:28:46.131Z,3.50
2022-11-26T03:30:18.052Z,3.50
2022-11-26T03:31:51.177Z,3.48
2022-11-26T03:33:22.800Z,3.68
2022-11-26T03:34:54.437Z,3.91
2022-11-26T03:36:26.107Z,3.97
2022-11-26T03:37:57.758Z,3.91
2022-11-26T03:39:29.409Z,3.92
2022-11-26T03:41:02.259Z,3.93
2022-11-26T03:42:33.866Z,3.97
2022-11-26T03:44:05.503Z,4.05
2022-11-26T03:45:37.131Z,4.04
2022-11-26T03:47:10.152Z,4.03
2022-11-26T03:48:41.774Z,4.00
2022-11-26T03:50:13.381Z,4.01
2022-11-26T03:51:45.017Z,4.07
2022-11-26T03:53:16.646Z,4.10
2022-11-26T03:54:48.262Z,4.10
2022-11-26T03:56:19.847Z,4.13
2022-11-26T03:57:51.489Z,4.12
2022-11-26T03:59:23.081Z,4.10
2022-11-26T04:00:54.640Z,4.10
2022-11-26T04:02:28.190Z,4.10
2022-11-26T04:03:59.810Z,4.12
2022-11-26T04:05:31.570Z,4.19
2022-11-26T04:07:03.162Z,4.24
2022-11-26T04:08:34.818Z,4.27
2022-11-26T04:10:07.927Z,4.24
2022-11-26T04:11:39.510Z,4.27
2022-11-26T04:13:11.108Z,4.22
2022-11-26T04:14:42.719Z,4.22
2022-11-26T04:16:14.348Z,4.19
2022-11-26T04:17:47.345Z,4.25
2022-11-26T04:19:18.948Z,4.25
2022-11-26T04:20:53.224Z,4.25
2022-11-26T04:22:25.244Z,4.30
2022-11-26T04:23:56.870Z,4.37
2022-11-26T04:25:28.526Z,4.33
2022-11-26T04:27:00.130Z,4.32
2022-11-26T04:28:31.809Z,4.24
2022-11-26T04:30:04.175Z,4.27
2022-11-26T04:31:35.831Z,4.25
2022-11-26T04:33:08.813Z,4.30
2022-11-26T04:34:40.687Z,4.30
2022-11-26T04:36:12.476Z,4.36
2022-11-26T04:37:44.076Z,4.37
2022-11-26T04:39:15.715Z,4.35
2022-11-26T04:40:47.462Z,4.31
2022-11-26T04:42:19.075Z,4.37
2022-11-26T04:43:50.668Z,4.38
2022-11-26T04:45:22.307Z,4.30
2022-11-26T04:46:53.916Z,4.27
2022-11-26T04:48:26.861Z,4.32
2022-11-26T04:49:58.475Z,4.25
2022-11-26T04:51:30.092Z,4.12
2022-11-26T04:53:01.709Z,4.02
2022-11-26T04:54:33.726Z,3.96
2022-11-26T04:56:05.605Z,3.95
2022-11-26T04:57:37.197Z,3.92
2022-11-26T04:59:08.829Z,3.96
2022-11-26T05:00:40.446Z,4.00
2022-11-26T05:02:12.077Z,4.01
2022-11-26T05:03:45.083Z,3.91
2022-11-26T05:05:16.706Z,3.90
2022-11-26T05:06:48.297Z,3.87
2022-11-26T05:08:19.885Z,3.87
2022-11-26T05:09:51.537Z,3.87
2022-11-26T05:11:23.154Z,3.86
2022-11-26T05:12:54.783Z,3.87
2022-11-26T05:14:26.388Z,3.84
2022-11-26T05:15:58.002Z,3.84
2022-11-26T05:17:29.640Z,3.80
2022-11-26T05:19:02.640Z,3.63
2022-11-26T05:20:34.242Z,3.65
2022-11-26T05:22:05.859Z,3.61
2022-11-26T05:23:37.453Z,3.62
2022-11-26T05:25:09.803Z,3.42
2022-11-26T05:26:41.413Z,3.32
2022-11-26T05:28:13.015Z,3.40
2022-11-26T05:29:44.637Z,3.49
2022-11-26T05:31:16.288Z,3.43
2022-11-26T05:32:47.917Z,3.42
2022-11-26T05:34:21.095Z,3.44
2022-11-26T05:35:52.691Z,3.33
2022-11-26T05:37:24.295Z,3.36
2022-11-26T05:38:55.938Z,3.45
2022-11-26T05:40:27.532Z,3.54
2022-11-26T05:41:59.120Z,3.47
2022-11-26T05:43:30.705Z,3.51
2022-11-26T05:45:02.317Z,3.39
2022-11-26T05:46:41.421Z,3.27
2022-11-26T05:48:13.027Z,3.23
2022-11-26T05:49:46.004Z,3.21
2022-11-26T05:51:17.618Z,3.10
2022-11-26T05:52:49.241Z,3.18
2022-11-26T05:54:21.079Z,3.36
2022-11-26T05:55:52.676Z,3.31
2022-11-26T05:57:24.328Z,3.33
2022-11-26T05:58:56.216Z,3.41
2022-11-26T06:00:27.811Z,3.46
2022-11-26T06:01:59.480Z,3.48
2022-11-26T06:03:31.183Z,3.60
2022-11-26T06:05:04.687Z,3.71
2022-11-26T06:06:36.308Z,3.79
2022-11-26T06:08:07.901Z,3.89
2022-11-26T06:09:39.826Z,3.87
2022-11-26T06:11:12.458Z,3.90
2022-11-26T06:12:44.088Z,3.91
2022-11-26T06:14:15.738Z,3.99
2022-11-26T06:15:47.368Z,4.03
2022-11-26T06:17:19.039Z,4.09
2022-11-26T06:18:50.950Z,4.10
2022-11-26T06:20:24.024Z,4.22
2022-11-26T06:21:55.622Z,4.17
2022-11-26T06:23:27.212Z,4.06
2022-11-26T06:24:58.829Z,4.02
2022-11-26T06:26:30.476Z,3.98
2022-11-26T06:28:02.133Z,3.97
2022-11-26T06:29:33.878Z,4.00
2022-11-26T06:31:05.848Z,4.03
2022-11-26T06:32:37.517Z,4.06
2022-11-26T06:34:09.143Z,4.07
2022-11-26T06:35:42.122Z,4.13
2022-11-26T06:37:13.746Z,4.19
2022-11-26T06:38:45.432Z,4.15
2022-11-26T06:40:17.995Z,4.17
2022-11-26T06:41:49.693Z,4.19
2022-11-26T06:43:21.327Z,4.19
2022-11-26T06:44:57.022Z,4.20
2022-11-26T06:46:31.162Z,4.23
2022-11-26T06:48:03.062Z,4.21
2022-11-26T06:49:34.693Z,4.26
2022-11-26T06:51:08.373Z,4.27
2022-11-26T06:52:40.051Z,4.26
2022-11-26T06:54:11.645Z,4.24
2022-11-26T06:55:43.228Z,4.24
2022-11-26T06:57:14.834Z,4.23
2022-11-26T06:58:46.760Z,4.23
2022-11-26T07:00:18.978Z,4.26
2022-11-26T07:01:50.704Z,4.33
2022-11-26T07:03:24.829Z,4.34
2022-11-26T07:04:57.857Z,4.35
2022-11-26T07:06:31.931Z,4.39
2022-11-26T07:08:03.806Z,4.41
2022-11-26T07:09:35.437Z,4.33
2022-11-26T07:11:07.043Z,4.24
2022-11-26T07:12:38.671Z,4.10
2022-11-26T07:14:10.292Z,4.07
2022-11-26T07:15:41.964Z,4.14
2022-11-26T07:17:13.605Z,4.09
2022-11-26T07:18:47.917Z,4.06
2022-11-26T07:20:20.029Z,4.05
2022-11-26T07:21:53.059Z,4.08
2022-11-26T07:23:24.693Z,4.11
2022-11-26T07:24:56.342Z,4.18
2022-11-26T07:26:27.909Z,4.23
2022-11-26T07:27:59.515Z,4.29
2022-11-26T07:29:31.180Z,4.32
2022-11-26T07:31:03.251Z,4.34
2022-11-26T07:32:34.873Z,4.34
2022-11-26T07:34:06.504Z,4.35
2022-11-26T07:35:38.101Z,4.36
2022-11-26T07:37:11.048Z,4.38
2022-11-26T07:38:42.680Z,4.43
2022-11-26T07:40:15.121Z,4.44
2022-11-26T07:41:46.744Z,4.46
2022-11-26T07:43:18.315Z,4.38
2022-11-26T07:44:50.720Z,4.35
2022-11-26T07:46:23.368Z,4.34
2022-11-26T07:47:55.149Z,4.43
2022-11-26T07:49:26.793Z,4.41
2022-11-26T07:50:58.421Z,4.45
2022-11-26T07:52:31.354Z,4.44
2022-11-26T07:54:04.022Z,4.42
2022-11-26T07:55:37.569Z,4.42
2022-11-26T07:57:09.722Z,4.34
2022-11-26T07:58:41.359Z,4.38
2022-11-26T08:00:14.036Z,4.33
2022-11-26T08:01:45.710Z,4.36
2022-11-26T08:03:17.329Z,4.37
2022-11-26T08:04:48.974Z,4.37
2022-11-26T08:06:21.947Z,4.41
2022-11-26T08:07:54.957Z,4.39
2022-11-26T08:09:26.625Z,4.44
2022-11-26T08:10:58.200Z,4.46
2022-11-26T08:12:29.798Z,4.50
2022-11-26T08:14:02.182Z,4.50
2022-11-26T08:15:35.437Z,4.52
2022-11-26T08:17:07.045Z,4.58
2022-11-26T08:18:38.662Z,4.58
2022-11-26T08:20:11.258Z,4.56
2022-11-26T08:21:42.878Z,4.55
2022-11-26T08:23:15.817Z,4.52
2022-11-26T08:24:47.409Z,4.54
2022-11-26T08:26:27.576Z,4.53
2022-11-26T08:28:02.520Z,4.57
2022-11-26T08:29:36.044Z,4.61
2022-11-26T08:31:08.851Z,4.61
2022-11-26T08:32:40.469Z,4.62
2022-11-26T08:34:13.337Z,4.63
2022-11-26T08:36:06.061Z,4.62
2022-11-26T08:37:36.508Z,4.66
2022-11-26T08:39:10.203Z,4.73
2022-11-26T08:40:41.820Z,4.71
2022-11-26T08:42:13.491Z,4.75
2022-11-26T08:44:06.287Z,4.70
2022-11-26T08:45:36.810Z,4.73
2022-11-26T08:47:08.746Z,4.75
2022-11-26T08:48:40.478Z,4.75
2022-11-26T08:50:12.434Z,4.80
2022-11-26T08:51:44.221Z,4.80
2022-11-26T08:53:15.963Z,4.80
2022-11-26T08:54:49.274Z,4.84
2022-11-26T08:56:21.481Z,4.88
2022-11-26T08:57:53.152Z,4.85
2022-11-26T08:59:25.332Z,4.91
2022-11-26T09:00:57.009Z,4.90
2022-11-26T09:02:28.689Z,4.91
2022-11-26T09:04:01.535Z,4.85
2022-11-26T09:05:33.149Z,4.83
2022-11-26T09:07:04.788Z,4.86
2022-11-26T09:08:56.344Z,4.77
2022-11-26T09:10:29.362Z,4.76
2022-11-26T09:12:02.037Z,4.73
2022-11-26T09:13:33.630Z,4.76
2022-11-26T09:15:06.004Z,4.83
2022-11-26T09:16:37.832Z,4.86
2022-11-26T09:18:09.467Z,4.89
2022-11-26T09:19:41.184Z,4.87
2022-11-26T09:21:12.871Z,4.79
2022-11-26T09:22:44.494Z,4.79
2022-11-26T09:24:17.155Z,4.84
2022-11-26T09:25:50.864Z,4.66
2022-11-26T09:27:22.500Z,4.71
2022-11-26T09:28:54.121Z,4.75
2022-11-26T09:30:25.815Z,4.75
2022-11-26T09:33:49.026Z,4.73
2022-11-26T09:35:20.718Z,4.67
2022-11-26T09:36:52.367Z,4.70
2022-11-26T09:38:23.992Z,4.70
2022-11-26T09:39:55.609Z,4.79
2022-11-26T09:41:35.307Z,4.80
2022-11-26T09:43:11.210Z,4.79
2022-11-26T09:45:01.792Z,4.81
2022-11-26T09:46:45.465Z,4.87
2022-11-26T09:48:18.445Z,4.86
2022-11-26T09:49:55.391Z,4.87
2022-11-26T09:51:26.997Z,4.90
2022-11-26T09:53:00.788Z,4.96
2022-11-26T09:54:32.420Z,4.86
2022-11-26T09:56:04.617Z,4.83
2022-11-26T09:57:41.092Z,4.83
2022-11-26T09:59:13.640Z,4.89
2022-11-26T10:00:46.175Z,4.86
2022-11-26T10:02:17.880Z,4.92
2022-11-26T10:03:49.524Z,4.93
2022-11-26T10:05:21.927Z,4.95
2022-11-26T10:06:57.394Z,5.04
2022-11-26T10:08:54.714Z,5.01
2022-11-26T10:10:27.265Z,4.82
2022-11-26T10:12:02.332Z,4.87
2022-11-26T10:13:41.350Z,4.97
2022-11-26T10:15:15.092Z,4.89
2022-11-26T10:16:50.139Z,4.83
2022-11-26T10:18:24.903Z,5.02
2022-11-26T10:20:12.850Z,5.17
2022-11-26T10:21:58.804Z,5.12
2022-11-26T10:23:32.504Z,5.12
2022-11-26T10:25:08.884Z,5.16
2022-11-26T10:26:40.750Z,5.02
2022-11-26T10:28:16.564Z,5.07
2022-11-26T10:29:50.984Z,5.09
2022-11-26T10:31:23.798Z,5.00
2022-11-26T10:32:55.957Z,5.07
2022-11-26T10:34:34.577Z,5.12
2022-11-26T10:36:10.230Z,5.20
2022-11-26T10:37:41.897Z,5.24
2022-11-26T10:39:15.010Z,5.20
2022-11-26T10:40:46.837Z,5.34
2022-11-26T10:42:20.358Z,5.48
2022-11-26T10:43:52.101Z,5.52
2022-11-26T10:45:26.527Z,5.46
2022-11-26T10:46:58.604Z,5.51
2022-11-26T10:48:30.901Z,5.53
2022-11-26T10:50:45.396Z,5.60
2022-11-26T10:52:07.835Z,5.56
2022-11-26T10:53:50.092Z,5.57
2022-11-26T10:55:24.901Z,5.45
2022-11-26T10:56:56.735Z,5.46
2022-11-26T10:58:29.015Z,5.43
2022-11-26T11:00:00.703Z,5.39
2022-11-26T11:01:36.430Z,5.44
2022-11-26T11:03:15.262Z,5.47
2022-11-26T11:04:48.956Z,5.50
2022-11-26T11:06:35.199Z,5.55
2022-11-26T11:08:12.277Z,5.71
2022-11-26T11:09:43.934Z,5.79
2022-11-26T11:11:18.583Z,5.79
2022-11-26T11:12:50.992Z,5.82
2022-11-26T11:14:28.147Z,5.81
2022-11-26T11:16:00.338Z,5.80
2022-11-26T11:17:34.648Z,5.92
2022-11-26T11:19:11.277Z,5.91
2022-11-26T11:20:43.287Z,5.93
2022-11-26T11:22:18.199Z,5.84
2022-11-26T11:24:08.253Z,5.85
2022-11-26T11:25:41.564Z,5.82
2022-11-26T11:27:22.762Z,5.79
2022-11-26T11:28:55.234Z,5.77
2022-11-26T11:30:27.930Z,5.91
2022-11-26T11:32:00.328Z,5.85
2022-11-26T11:33:33.395Z,5.84
2022-11-26T11:35:24.481Z,5.82
2022-11-26T11:37:00.198Z,5.84
2022-11-26T11:38:32.802Z,5.88
2022-11-26T11:40:05.964Z,5.92
2022-11-26T11:41:39.525Z,5.94
2022-11-26T11:43:15.189Z,5.89
2022-11-26T11:44:47.316Z,5.88
2022-11-26T11:46:31.778Z,5.95
2022-11-26T11:48:09.506Z,6.01
2022-11-26T11:49:49.159Z,6.09
2022-11-26T11:51:24.953Z,6.02
2022-11-26T11:53:03.149Z,5.98
2022-11-26T11:54:42.127Z,6.01
2022-11-26T11:56:21.085Z,6.08
2022-11-26T11:58:02.664Z,6.15
2022-11-26T11:59:58.246Z,6.24
2022-11-26T12:01:38.167Z,6.26
2022-11-26T12:03:21.829Z,6.31
2022-11-26T12:05:03.681Z,6.30
2022-11-26T12:06:40.292Z,6.30
2022-11-26T12:08:21.378Z,6.35
2022-11-26T12:09:55.683Z,6.37
2022-11-26T12:11:34.978Z,6.49
2022-11-26T12:13:06.613Z,6.65
2022-11-26T12:14:39.321Z,6.71
2022-11-26T12:16:11.125Z,6.73
2022-11-26T12:17:44.791Z,6.62
2022-11-26T12:19:19.055Z,6.62
2022-11-26T12:20:53.926Z,6.62
2022-11-26T12:22:26.905Z,6.67
2022-11-26T12:24:00.664Z,6.81
2022-11-26T12:25:36.705Z,6.65
2022-11-26T12:27:21.791Z,6.79
2022-11-26T12:28:56.006Z,6.76
2022-11-26T12:30:29.808Z,6.63
2022-11-26T12:32:03.380Z,6.73
2022-11-26T12:33:38.411Z,6.68
2022-11-26T12:35:12.372Z,6.63
2022-11-26T12:36:46.949Z,6.65
2022-11-26T12:38:22.317Z,6.69
2022-11-26T12:39:55.758Z,6.81
2022-11-26T12:41:29.602Z,6.97
2022-11-26T12:43:03.811Z,6.90
2022-11-26T12:44:37.731Z,6.89
2022-11-26T12:46:14.138Z,6.82
2022-11-26T12:47:49.782Z,6.67
2022-11-26T12:49:24.110Z,6.78
2022-11-26T12:50:56.986Z,6.78
2022-11-26T12:52:32.545Z,6.75
2022-11-26T12:54:10.131Z,6.81
2022-11-26T12:55:43.876Z,6.89
2022-11-26T12:57:18.086Z,6.96
2022-11-26T12:58:57.736Z,6.81
2022-11-26T13:00:35.771Z,6.85
2022-11-26T13:02:17.538Z,6.90
2022-11-26T13:03:49.242Z,7.01
2022-11-26T13:05:27.062Z,7.02
2022-11-26T13:07:09.724Z,7.01
2022-11-26T13:08:45.473Z,7.08
2022-11-26T13:10:21.367Z,7.20
2022-11-26T13:11:56.549Z,7.12
2022-11-26T13:13:33.700Z,7.13
2022-11-26T13:15:09.767Z,7.21
2022-11-26T13:16:44.783Z,7.38
2022-11-26T13:18:27.444Z,7.48
2022-11-26T13:20:02.783Z,7.07
2022-11-26T13:21:41.090Z,7.15
2022-11-26T13:23:28.819Z,7.23
2022-11-26T13:25:11.514Z,7.09
2022-11-26T13:26:53.941Z,6.98
2022-11-26T13:28:32.878Z,6.82
2022-11-26T13:30:17.602Z,6.76
2022-11-26T13:31:57.399Z,6.89
2022-11-26T13:33:40.912Z,6.80
2022-11-26T13:35:20.843Z,6.93
2022-11-26T13:37:01.761Z,7.47
2022-11-26T13:38:38.719Z,7.53
2022-11-26T13:40:46.324Z,7.44
2022-11-26T13:42:29.248Z,7.33
2022-11-26T13:44:18.704Z,7.26
2022-11-26T13:46:10.659Z,7.31
2022-11-26T13:47:43.436Z,7.62
2022-11-26T13:49:16.337Z,7.80
2022-11-26T13:50:48.995Z,8.01
2022-11-26T13:52:22.691Z,7.88
2022-11-26T13:53:56.378Z,8.12
2022-11-26T13:55:29.393Z,7.84
2022-11-26T13:57:02.677Z,8.42
2022-11-26T13:58:36.782Z,8.59
2022-11-26T14:00:09.740Z,8.30
2022-11-26T14:01:41.711Z,8.27
2022-11-26T14:03:42.481Z,8.22
2022-11-26T14:05:14.638Z,8.14
2022-11-26T14:07:19.385Z,8.70
2022-11-26T14:08:51.664Z,9.28
2022-11-26T14:10:42.341Z,9.66
2022-11-26T14:12:14.032Z,8.97
2022-11-26T14:13:47.032Z,8.54
2022-11-26T14:15:52.506Z,7.99
2022-11-26T14:17:24.934Z,8.45
2022-11-26T14:18:59.017Z,8.86
2022-11-26T14:20:30.665Z,9.22
2022-11-26T14:22:03.742Z,7.93
2022-11-26T14:23:44.561Z,7.72
2022-11-26T14:25:16.479Z,8.11
2022-11-26T14:26:48.088Z,8.62
2022-11-26T14:28:21.946Z,7.57
2022-11-26T14:29:58.777Z,8.21
2022-11-26T14:31:33.200Z,8.14
2022-11-26T14:33:11.337Z,8.00
2022-11-26T14:34:45.418Z,8.16
2022-11-26T14:36:21.423Z,7.98
2022-11-26T14:37:53.666Z,7.47
2022-11-26T14:39:25.544Z,7.38
2022-11-26T14:40:58.984Z,7.42
2022-11-26T14:42:30.595Z,7.22
2022-11-26T14:44:06.039Z,7.51
2022-11-26T14:45:39.090Z,7.39
2022-11-26T14:47:14.864Z,7.36
2022-11-26T14:48:47.219Z,7.28
2022-11-26T14:50:20.014Z,7.25
2022-11-26T14:51:53.485Z,7.22
2022-11-26T14:53:26.418Z,7.25
2022-11-26T14:54:58.624Z,7.09
2022-11-26T14:56:30.803Z,6.86
2022-11-26T14:58:08.957Z,6.85
2022-11-26T14:59:54.982Z,6.85
2022-11-26T15:01:32.361Z,6.91
2022-11-26T15:03:04.389Z,6.89
2022-11-26T15:04:38.855Z,6.85
2022-11-26T15:06:23.958Z,6.78
2022-11-26T15:08:00.784Z,6.77
2022-11-26T15:09:32.395Z,6.82
2022-11-26T15:11:05.314Z,6.67
2022-11-26T15:12:37.098Z,6.69
2022-11-26T15:14:15.451Z,6.60
2022-11-26T15:15:50.445Z,6.60
2022-11-26T15:17:23.975Z,6.59
2022-11-26T15:18:55.731Z,6.60
2022-11-26T15:20:27.565Z,6.46
2022-11-26T15:22:00.163Z,6.49
2022-11-26T15:23:32.853Z,6.40
2022-11-26T15:25:05.044Z,6.41
2022-11-26T15:26:36.732Z,6.36
2022-11-26T15:28:16.429Z,6.15
2022-11-26T15:29:49.099Z,6.06
2022-11-26T15:31:20.875Z,6.14
2022-11-26T15:33:01.753Z,6.21
2022-11-26T15:34:33.494Z,6.15
2022-11-26T15:36:05.857Z,5.75
2022-11-26T15:37:37.571Z,5.74
2022-11-26T15:39:23.557Z,5.78
2022-11-26T15:40:58.366Z,5.86
2022-11-26T15:42:31.162Z,5.85
2022-11-26T15:44:02.846Z,5.77
2022-11-26T15:45:37.652Z,5.83
2022-11-26T15:47:12.841Z,5.78
2022-11-26T15:48:54.442Z,5.79
2022-11-26T15:50:28.904Z,5.71
2022-11-26T15:52:03.502Z,5.60
2022-11-26T15:53:36.205Z,5.46
2022-11-26T15:55:12.948Z,5.28
2022-11-26T15:56:45.619Z,5.41
2022-11-26T15:58:19.563Z,5.42
2022-11-26T15:59:54.020Z,5.40
2022-11-26T16:01:26.846Z,5.33
2022-11-26T16:02:58.924Z,5.21
2022-11-26T16:04:43.578Z,5.19
2022-11-26T16:06:29.647Z,5.11
2022-11-26T16:08:02.539Z,5.07
2022-11-26T16:09:34.511Z,5.06
2022-11-26T16:11:07.462Z,5.09
2022-11-26T16:12:44.387Z,5.14
2022-11-26T16:14:29.977Z,5.11
2022-11-26T16:16:05.514Z,5.06
2022-11-26T16:17:37.174Z,4.97
2022-11-26T16:19:14.026Z,4.88
2022-11-26T16:20:47.062Z,4.73
2022-11-26T16:22:20.850Z,4.72
2022-11-26T16:23:58.142Z,4.72
2022-11-26T16:25:30.627Z,4.79
2022-11-26T16:27:05.050Z,4.68
2022-11-26T16:28:36.670Z,4.63
2022-11-26T16:30:14.083Z,4.53
2022-11-26T16:31:45.781Z,4.51
2022-11-26T16:33:17.410Z,4.29
2022-11-26T16:34:49.064Z,4.37
2022-11-26T16:36:23.513Z,4.19
2022-11-26T16:37:55.264Z,3.60
2022-11-26T16:39:30.134Z,3.72
2022-11-26T16:41:02.277Z,4.10
2022-11-26T16:42:34.007Z,4.21
2022-11-26T16:44:05.639Z,4.21
2022-11-26T16:45:37.387Z,4.31
2022-11-26T16:47:12.967Z,4.28
2022-11-26T16:48:45.428Z,4.25
2022-11-26T16:50:18.231Z,4.24
2022-11-26T16:51:51.238Z,4.27
2022-11-26T16:53:22.931Z,4.22
2022-11-26T16:54:54.667Z,4.05
2022-11-26T16:56:28.211Z,3.93
2022-11-26T16:58:00.306Z,3.59
2022-11-26T16:59:31.973Z,3.83
2022-11-26T17:01:03.731Z,3.91
2022-11-26T17:02:35.851Z,3.80
2022-11-26T17:04:07.876Z,3.71
2022-11-26T17:05:39.695Z,3.82
2022-11-26T17:07:18.308Z,3.86
2022-11-26T17:08:50.378Z,3.70
2022-11-26T17:10:23.142Z,3.80
2022-11-26T17:11:54.909Z,3.92
2022-11-26T17:13:29.591Z,3.95
2022-11-26T17:15:01.509Z,3.99
2022-11-26T17:16:33.310Z,3.97
2022-11-26T17:18:07.590Z,3.96
2022-11-26T17:19:39.605Z,3.80
2022-11-26T17:21:11.430Z,3.81
2022-11-26T17:22:45.411Z,3.84
2022-11-26T17:24:19.337Z,3.84
2022-11-26T17:25:54.758Z,3.82
2022-11-26T17:27:26.875Z,3.76
2022-11-26T17:28:58.481Z,3.61
2022-11-26T17:30:30.449Z,3.63
2022-11-26T17:32:04.701Z,3.68
2022-11-26T17:33:36.724Z,3.68
2022-11-26T17:35:08.570Z,3.70
2022-11-26T17:36:40.210Z,3.69
2022-11-26T17:38:14.114Z,3.73
2022-11-26T17:39:45.794Z,3.80
2022-11-26T17:41:17.448Z,3.77
2022-11-26T17:42:49.753Z,3.72
2022-11-26T17:44:21.668Z,3.73
2022-11-26T17:46:01.615Z,3.65
2022-11-26T17:47:33.278Z,3.63
2022-11-26T17:49:04.952Z,3.56
2022-11-26T17:50:36.585Z,3.52
2022-11-26T17:52:08.263Z,3.55
2022-11-26T17:53:41.403Z,3.62
2022-11-26T17:55:13.543Z,3.67
2022-11-26T17:56:45.173Z,3.59
2022-11-26T17:58:16.812Z,3.58
2022-11-26T17:59:48.479Z,3.43
2022-11-26T18:01:23.209Z,3.44
2022-11-26T18:02:54.988Z,3.42
2022-11-26T18:04:29.036Z,3.40
2022-11-26T18:06:00.680Z,3.40
2022-11-26T18:07:32.359Z,3.44
2022-11-26T18:09:05.556Z,3.47
2022-11-26T18:10:39.178Z,3.43
2022-11-26T18:12:20.159Z,3.39
2022-11-26T18:13:54.883Z,3.25
2022-11-26T18:15:26.794Z,3.26
2022-11-26T18:16:58.466Z,3.32
2022-11-26T18:18:30.151Z,3.29
2022-11-26T18:20:01.834Z,3.34
2022-11-26T18:21:33.475Z,3.37
2022-11-26T18:23:05.080Z,3.46
2022-11-26T18:24:38.105Z,3.47
2022-11-26T18:26:14.358Z,3.49
2022-11-26T18:27:46.030Z,3.41
2022-11-26T18:29:17.638Z,3.39
2022-11-26T18:30:50.015Z,3.36
2022-11-26T18:32:21.802Z,3.26
2022-11-26T18:33:53.492Z,3.31
2022-11-26T18:35:25.108Z,3.36
2022-11-26T18:36:56.765Z,3.35
2022-11-26T18:38:31.259Z,3.36
2022-11-26T18:40:05.482Z,3.41
2022-11-26T18:41:37.163Z,3.46
2022-11-26T18:43:08.809Z,3.33
2022-11-26T18:44:40.417Z,3.32
2022-11-26T18:46:16.984Z,3.25
2022-11-26T18:47:48.687Z,3.19
2022-11-26T18:49:20.523Z,3.17
2022-11-26T18:50:56.213Z,3.20
2022-11-26T18:52:27.820Z,3.18
2022-11-26T18:53:59.438Z,3.26
2022-11-26T18:55:32.428Z,3.12
2022-11-26T18:57:04.025Z,3.12
2022-11-26T18:58:35.643Z,3.19
2022-11-26T19:00:09.083Z,3.18
2022-11-26T19:01:40.889Z,3.18
2022-11-26T19:03:12.619Z,3.21
2022-11-26T19:04:44.187Z,3.26
2022-11-26T19:06:16.710Z,3.24
2022-11-26T19:07:48.396Z,3.19
2022-11-26T19:09:20.462Z,3.19
2022-11-26T19:10:53.437Z,3.07
2022-11-26T19:12:25.062Z,2.95
2022-11-26T19:13:57.082Z,3.06
2022-11-26T19:15:28.738Z,3.02
2022-11-26T19:17:00.667Z,2.90
2022-11-26T19:18:32.363Z,2.39
2022-11-26T19:20:05.208Z,2.37
2022-11-26T19:21:36.894Z,2.62
2022-11-26T19:23:09.057Z,2.69
2022-11-26T19:24:40.661Z,2.88
2022-11-26T19:26:13.707Z,2.88
2022-11-26T19:27:45.357Z,2.99
2022-11-26T19:29:17.003Z,2.98
2022-11-26T19:30:58.080Z,2.61
2022-11-26T19:32:29.779Z,2.65
2022-11-26T19:34:03.308Z,2.70
2022-11-26T19:35:38.330Z,2.64
2022-11-26T19:37:10.005Z,2.72
2022-11-26T19:38:41.604Z,2.74
2022-11-26T19:40:13.601Z,2.71
2022-11-26T19:41:46.552Z,2.57
2022-11-26T19:43:18.158Z,2.44
2022-11-26T19:44:49.770Z,2.26
2022-11-26T19:46:22.254Z,2.24
2022-11-26T19:47:53.934Z,2.42
2022-11-26T19:49:25.663Z,2.41
2022-11-26T19:50:57.409Z,2.46
2022-11-26T19:52:29.303Z,2.56
2022-11-26T19:54:00.929Z,2.54
2022-11-26T19:55:32.822Z,2.53
2022-11-26T19:57:07.113Z,2.55
2022-11-26T19:58:38.730Z,2.57
2022-11-26T20:00:11.665Z,2.57
2022-11-26T20:01:43.311Z,2.35
2022-11-26T20:03:14.946Z,2.25
2022-11-26T20:04:46.577Z,2.14
2022-11-26T20:06:19.008Z,2.13
2022-11-26T20:07:50.756Z,2.25
2022-11-26T20:09:22.916Z,2.40
2022-11-26T20:11:00.058Z,2.37
2022-11-26T20:12:32.972Z,2.50
2022-11-26T20:14:04.624Z,2.39
2022-11-26T20:15:37.638Z,2.41
2022-11-26T20:17:09.438Z,2.42
2022-11-26T20:18:41.277Z,2.46
2022-11-26T20:20:12.977Z,2.53
2022-11-26T20:21:44.608Z,2.50
2022-11-26T20:23:16.230Z,2.41
2022-11-26T20:24:47.990Z,2.48
2022-11-26T20:26:21.848Z,2.57
2022-11-26T20:27:56.988Z,2.62
2022-11-26T20:29:28.651Z,2.62
2022-11-26T20:31:00.320Z,2.62
2022-11-26T20:32:31.979Z,2.57
2022-11-26T20:34:03.942Z,2.61
2022-11-26T20:35:35.578Z,2.68
2022-11-26T20:37:07.189Z,2.58
2022-11-26T20:38:40.061Z,2.63
2022-11-26T20:40:11.944Z,2.61
2022-11-26T20:41:43.762Z,2.62
2022-11-26T20:43:16.712Z,2.63
2022-11-26T20:44:48.378Z,2.67
2022-11-26T20:46:20.043Z,2.61
2022-11-26T20:47:51.706Z,2.67
2022-11-26T20:49:23.613Z,2.66
2022-11-26T20:50:57.905Z,2.66
2022-11-26T20:52:29.531Z,2.60
2022-11-26T20:54:01.565Z,2.55